createdAt,value
2022-12-23T00:03:04.323Z,89.11
2022-12-23T00:08:10.585Z,89.14
2022-12-23T00:13:35.133Z,89.20
2022-12-23T00:18:40.860Z,89.18
2022-12-23T00:23:48.136Z,89.40
2022-12-23T00:28:53.437Z,89.51
2022-12-23T00:33:58.957Z,89.72
2022-12-23T00:39:36.712Z,89.68
2022-12-23T00:44:41.442Z,89.95
2022-12-23T00:49:47.054Z,89.32
2022-12-23T00:54:51.097Z,89.94
2022-12-23T00:59:55.883Z,89.95
2022-12-23T01:05:18.982Z,89.70
2022-12-23T01:10:24.019Z,90.19
2022-12-23T01:15:29.002Z,90.12
2022-12-23T01:20:33.221Z,89.79
2022-12-23T01:25:38.196Z,89.51
2022-12-23T01:30:42.890Z,89.79
2022-12-23T01:35:47.693Z,90.11
2022-12-23T01:40:53.760Z,89.32
2022-12-23T01:45:58.982Z,89.86
2022-12-23T01:51:10.166Z,89.39
2022-12-23T01:56:42.164Z,89.35
2022-12-23T02:02:05.275Z,89.15
2022-12-23T02:07:29.335Z,89.32
2022-12-23T02:13:09.625Z,89.09
2022-12-23T02:18:18.254Z,89.00
2022-12-23T02:23:40.926Z,88.88
2022-12-23T02:29:04.217Z,89.19
2022-12-23T02:34:18.150Z,88.53
2022-12-23T02:39:34.764Z,88.51
2022-12-23T02:45:04.687Z,89.02
2022-12-23T02:50:35.218Z,88.64
2022-12-23T02:55:42.705Z,88.90
2022-12-23T03:00:47.359Z,89.09
2022-12-23T03:05:52.243Z,88.61
2022-12-23T03:11:18.304Z,88.44
2022-12-23T03:16:36.575Z,88.87
2022-12-23T03:22:00.288Z,88.00
2022-12-23T03:27:17.109Z,87.88
2022-12-23T03:32:25.557Z,88.02
2022-12-23T03:37:33.696Z,88.25
2022-12-23T03:42:46.138Z,88.13
2022-12-23T03:48:20.490Z,87.54
2022-12-23T03:53:37.283Z,87.77
2022-12-23T03:58:56.380Z,87.47
2022-12-23T04:04:10.353Z,87.77
2022-12-23T04:09:21.762Z,87.60
2022-12-23T04:14:27.980Z,87.55
2022-12-23T04:19:34.970Z,87.15
2022-12-23T04:24:40.598Z,87.06
2022-12-23T04:29:47.405Z,87.06
2022-12-23T04:34:53.175Z,87.03
2022-12-23T04:39:58.835Z,87.34
2022-12-23T04:45:03.643Z,87.61
2022-12-23T04:50:09.348Z,87.59
2022-12-23T04:55:15.153Z,87.72
2022-12-23T05:00:20.227Z,87.56
2022-12-23T05:05:24.802Z,87.36
2022-12-23T05:10:29.658Z,87.51
2022-12-23T05:15:34.983Z,87.54
2022-12-23T05:20:38.957Z,87.90
2022-12-23T05:25:44.500Z,87.78
2022-12-23T05:30:49.946Z,87.61
2022-12-23T05:35:54.978Z,87.82
2022-12-23T05:40:59.748Z,87.94
2022-12-23T05:46:03.695Z,87.24
2022-12-23T05:51:07.607Z,88.14
2022-12-23T05:56:11.328Z,87.97
2022-12-23T06:01:15.440Z,87.88
2022-12-23T06:06:19.778Z,88.07
2022-12-23T06:11:23.745Z,88.39
2022-12-23T06:16:27.790Z,88.27
2022-12-23T06:21:32.611Z,88.47
2022-12-23T06:26:36.378Z,87.97
2022-12-23T06:31:40.157Z,88.20
2022-12-23T06:36:44.676Z,88.56
2022-12-23T06:41:48.461Z,88.52
2022-12-23T06:46:53.291Z,88.39
2022-12-23T06:51:58.820Z,88.09
2022-12-23T06:57:03.421Z,88.84
2022-12-23T07:02:10.511Z,88.57
2022-12-23T07:07:15.291Z,88.19
2022-12-23T07:12:20.290Z,88.55
2022-12-23T07:17:24.660Z,88.61
2022-12-23T07:22:28.173Z,88.37
2022-12-23T07:27:32.312Z,88.65
2022-12-23T07:32:36.031Z,88.74
2022-12-23T07:37:39.726Z,88.83
2022-12-23T07:42:46.033Z,88.77
2022-12-23T07:47:54.971Z,88.88
2022-12-23T07:52:58.616Z,88.18
2022-12-23T07:58:03.038Z,88.07
2022-12-23T08:03:07.744Z,88.14
2022-12-23T08:08:11.956Z,88.18
2022-12-23T08:13:16.580Z,88.32
2022-12-23T08:18:21.367Z,88.23
2022-12-23T08:23:27.898Z,88.02
2022-12-23T08:28:32.916Z,88.41
2022-12-23T08:33:40.988Z,88.00
2022-12-23T08:38:46.184Z,88.27
2022-12-23T08:43:50.821Z,88.15
2022-12-23T08:48:56.286Z,88.23
2022-12-23T08:54:01.910Z,88.16
2022-12-23T08:59:06.511Z,88.14
2022-12-23T09:04:11.161Z,88.27
2022-12-23T09:09:16.840Z,88.05
2022-12-23T09:14:21.476Z,88.31
2022-12-23T09:19:26.460Z,88.06
2022-12-23T09:24:30.791Z,88.01
2022-12-23T09:29:35.273Z,88.23
2022-12-23T09:34:40.603Z,88.18
2022-12-23T09:39:45.416Z,88.14
2022-12-23T09:45:16.936Z,88.43
2022-12-23T09:50:33.302Z,88.30
2022-12-23T09:55:56.366Z,88.68
2022-12-23T10:01:12.630Z,88.50
2022-12-23T10:06:26.310Z,88.84
2022-12-23T10:11:43.027Z,88.56
2022-12-23T10:16:53.518Z,88.33
2022-12-23T10:22:03.411Z,88.95
2022-12-23T10:27:25.592Z,88.75
2022-12-23T10:32:51.325Z,87.99
2022-12-23T10:38:04.885Z,88.14
2022-12-23T10:43:22.273Z,88.04
2022-12-23T10:48:44.891Z,87.63
2022-12-23T10:54:07.202Z,87.99
2022-12-23T10:59:17.235Z,88.11
2022-12-23T11:04:38.389Z,88.24
2022-12-23T11:09:52.246Z,87.93
2022-12-23T11:14:58.913Z,88.16
2022-12-23T11:20:16.569Z,88.00
2022-12-23T11:31:08.999Z,88.29
2022-12-23T11:36:14.171Z,88.70
2022-12-23T11:41:24.764Z,88.75
2022-12-23T11:46:33.136Z,88.75
2022-12-23T11:51:38.336Z,88.52
2022-12-23T11:56:42.942Z,88.33
2022-12-23T12:01:50.158Z,89.12
2022-12-23T12:06:56.764Z,89.07
2022-12-23T12:12:14.993Z,88.94
2022-12-23T12:17:23.641Z,88.72
2022-12-23T12:22:37.879Z,89.09
2022-12-23T12:27:46.534Z,89.05
2022-12-23T12:33:05.927Z,89.09
2022-12-23T12:38:26.088Z,88.84
2022-12-23T12:43:36.532Z,88.98
2022-12-23T12:48:49.522Z,89.21
2022-12-23T12:54:06.733Z,89.18
2022-12-23T12:59:18.573Z,89.21
2022-12-23T13:04:43.918Z,89.49
2022-12-23T13:10:05.825Z,89.39
2022-12-23T13:15:20.295Z,89.57
2022-12-23T13:21:00.788Z,89.29
2022-12-23T13:26:19.879Z,89.42
2022-12-23T13:31:39.192Z,89.57
2022-12-23T13:36:50.094Z,89.61
2022-12-23T13:42:04.600Z,89.54
2022-12-23T13:47:29.867Z,89.51
2022-12-23T13:52:48.423Z,89.71
2022-12-23T13:58:03.175Z,89.71
2022-12-23T14:03:10.219Z,89.74
2022-12-23T14:08:20.382Z,90.11
2022-12-23T14:13:29.599Z,89.94
2022-12-23T14:18:45.440Z,90.08
2022-12-23T14:24:24.893Z,90.58
2022-12-23T14:29:57.500Z,90.18
2022-12-23T14:35:17.944Z,89.88
2022-12-23T14:40:39.824Z,90.34
2022-12-23T14:45:44.045Z,90.24
2022-12-23T14:51:02.204Z,89.90
2022-12-23T14:56:12.647Z,90.22
2022-12-23T15:01:21.814Z,90.51
2022-12-23T15:06:40.067Z,90.62
2022-12-23T15:11:44.109Z,90.69
2022-12-23T15:16:47.945Z,90.62
2022-12-23T15:22:03.226Z,90.70
2022-12-23T15:27:29.786Z,90.71
2022-12-23T15:32:34.556Z,90.47
2022-12-23T15:37:40.640Z,90.65
2022-12-23T15:42:49.784Z,90.97
2022-12-23T15:47:53.944Z,91.27
2022-12-23T15:53:07.386Z,90.78
2022-12-23T15:58:24.568Z,90.89
2022-12-23T16:03:39.893Z,90.98
2022-12-23T16:08:44.383Z,91.21
2022-12-23T16:14:01.185Z,90.93
2022-12-23T16:19:06.543Z,90.87
2022-12-23T16:24:10.952Z,91.04
2022-12-23T16:29:15.940Z,91.24
2022-12-23T16:34:19.799Z,91.41
2022-12-23T16:39:24.839Z,91.19
2022-12-23T16:44:30.165Z,91.10
2022-12-23T16:49:38.011Z,90.93
2022-12-23T16:54:42.893Z,91.26
2022-12-23T16:59:48.352Z,91.07
2022-12-23T17:04:54.622Z,90.94
2022-12-23T17:10:04.870Z,90.54
2022-12-23T17:15:24.615Z,90.91
2022-12-23T17:20:27.916Z,91.05
2022-12-23T17:25:32.203Z,90.92
2022-12-23T17:30:38.024Z,90.80
2022-12-23T17:35:42.118Z,90.67
2022-12-23T17:40:49.397Z,90.34
2022-12-23T17:45:53.742Z,90.13
2022-12-23T17:50:58.169Z,90.53
2022-12-23T17:56:02.399Z,90.02
2022-12-23T18:01:07.315Z,90.05
2022-12-23T18:06:14.976Z,90.04
2022-12-23T18:11:34.187Z,89.95
2022-12-23T18:16:39.820Z,90.15
2022-12-23T18:21:47.745Z,90.09
2022-12-23T18:26:53.342Z,90.11
2022-12-23T18:31:58.021Z,89.77
2022-12-23T18:37:02.557Z,89.59
2022-12-23T18:42:06.911Z,89.35
2022-12-23T18:47:12.094Z,89.29
2022-12-23T18:52:16.496Z,89.16
2022-12-23T18:57:21.760Z,88.96
2022-12-23T19:02:26.402Z,88.89
2022-12-23T19:07:32.444Z,89.06
2022-12-23T19:12:37.805Z,88.71
2022-12-23T19:17:42.241Z,88.66
2022-12-23T19:22:47.335Z,88.61
2022-12-23T19:27:51.717Z,88.13
2022-12-23T19:32:56.002Z,88.44
2022-12-23T19:38:01.217Z,87.94
2022-12-23T19:43:06.232Z,88.07
2022-12-23T19:48:16.499Z,88.01
2022-12-23T19:53:25.140Z,88.26
2022-12-23T19:58:36.971Z,88.20
2022-12-23T20:03:45.084Z,88.38
2022-12-23T20:08:53.808Z,88.04
2022-12-23T20:14:04.001Z,88.27
2022-12-23T20:19:08.671Z,88.12
2022-12-23T20:24:13.759Z,87.81
2022-12-23T20:29:17.533Z,87.90
2022-12-23T20:34:21.210Z,87.99
2022-12-23T20:39:25.299Z,87.53
2022-12-23T20:44:37.210Z,87.14
2022-12-23T20:49:41.126Z,87.06
2022-12-23T20:54:45.760Z,87.50
2022-12-23T20:59:50.239Z,87.32
2022-12-23T21:04:53.940Z,87.74
2022-12-23T21:09:58.022Z,87.18
2022-12-23T21:15:01.642Z,87.47
2022-12-23T21:20:07.922Z,87.24
2022-12-23T21:25:13.320Z,87.13
2022-12-23T21:30:17.136Z,86.78
2022-12-23T21:35:21.564Z,86.43
2022-12-23T21:40:25.848Z,87.05
2022-12-23T21:45:29.889Z,86.87
2022-12-23T21:50:34.847Z,87.28
2022-12-23T21:55:40.423Z,87.42
2022-12-23T22:00:47.380Z,86.92
2022-12-23T22:05:54.784Z,86.36
2022-12-23T22:11:00.737Z,87.09
2022-12-23T22:16:05.899Z,87.15
2022-12-23T22:21:12.331Z,87.63
2022-12-23T22:26:24.133Z,87.37
2022-12-23T22:31:32.100Z,87.57
2022-12-23T22:36:37.813Z,87.26
2022-12-23T22:41:41.501Z,87.24
2022-12-23T22:46:45.650Z,86.77
2022-12-23T22:51:50.080Z,87.02
2022-12-23T22:56:54.146Z,87.50
2022-12-23T23:01:58.026Z,87.57
2022-12-23T23:07:02.623Z,87.19
2022-12-23T23:12:06.313Z,87.90
2022-12-23T23:17:12.076Z,87.23
2022-12-23T23:22:19.937Z,87.20
2022-12-23T23:27:26.630Z,87.74
2022-12-23T23:32:32.668Z,87.66
2022-12-23T23:37:39.712Z,88.04
2022-12-23T23:42:51.857Z,87.67
2022-12-23T23:48:01.102Z,87.89
2022-12-23T23:53:07.878Z,87.66
2022-12-23T23:58:13.693Z,87.34
